sensor_id;sensor_type;location;lat;lon;timestamp;pressure;altitude;pressure_sealevel;temperature;humidity
54628;BME280;40525;55.926;21.066;2022-12-20T00:01:20;101699.83;;;-3.16;84.10
54628;BME280;40525;55.926;21.066;2022-12-20T00:03:49;101699.88;;;-3.14;84.00
54628;BME280;40525;55.926;21.066;2022-12-20T00:06:16;101696.96;;;-3.10;83.75
54628;BME280;40525;55.926;21.066;2022-12-20T00:08:44;101690.57;;;-3.07;83.75
54628;BME280;40525;55.926;21.066;2022-12-20T00:11:11;101678.62;;;-3.05;84.67
54628;BME280;40525;55.926;21.066;2022-12-20T00:13:38;101680.83;;;-3.02;84.48
54628;BME280;40525;55.926;21.066;2022-12-20T00:16:11;101670.98;;;-3.01;84.75
54628;BME280;40525;55.926;21.066;2022-12-20T00:18:39;101674.57;;;-2.94;84.78
54628;BME280;40525;55.926;21.066;2022-12-20T00:21:09;101661.27;;;-2.93;85.82
54628;BME280;40525;55.926;21.066;2022-12-20T00:23:38;101667.30;;;-2.93;86.00
54628;BME280;40525;55.926;21.066;2022-12-20T00:26:07;101668.13;;;-2.94;85.48
54628;BME280;40525;55.926;21.066;2022-12-20T00:28:36;101657.94;;;-2.89;85.52
54628;BME280;40525;55.926;21.066;2022-12-20T00:31:05;101655.39;;;-2.88;85.77
54628;BME280;40525;55.926;21.066;2022-12-20T00:33:33;101652.05;;;-2.84;85.33
54628;BME280;40525;55.926;21.066;2022-12-20T00:36:01;101646.42;;;-2.85;86.13
54628;BME280;40525;55.926;21.066;2022-12-20T00:38:28;101644.27;;;-2.85;86.38
54628;BME280;40525;55.926;21.066;2022-12-20T00:41:08;101638.23;;;-2.86;86.54
54628;BME280;40525;55.926;21.066;2022-12-20T00:43:37;101630.92;;;-2.86;87.59
54628;BME280;40525;55.926;21.066;2022-12-20T00:46:05;101633.94;;;-2.85;87.59
54628;BME280;40525;55.926;21.066;2022-12-20T00:48:33;101622.80;;;-2.83;87.23
54628;BME280;40525;55.926;21.066;2022-12-20T00:51:06;101629.39;;;-2.78;87.14
54628;BME280;40525;55.926;21.066;2022-12-20T00:53:35;101632.96;;;-2.73;86.83
54628;BME280;40525;55.926;21.066;2022-12-20T00:56:03;101628.28;;;-2.70;87.14
54628;BME280;40525;55.926;21.066;2022-12-20T00:58:33;101629.61;;;-2.69;87.47
54628;BME280;40525;55.926;21.066;2022-12-20T01:01:01;101618.86;;;-2.68;87.33
54628;BME280;40525;55.926;21.066;2022-12-20T01:06:00;101603.02;;;-2.65;87.13
54628;BME280;40525;55.926;21.066;2022-12-20T01:08:29;101612.14;;;-2.62;87.05
54628;BME280;40525;55.926;21.066;2022-12-20T01:11:19;101599.32;;;-2.57;87.29
54628;BME280;40525;55.926;21.066;2022-12-20T01:13:53;101601.09;;;-2.55;87.63
54628;BME280;40525;55.926;21.066;2022-12-20T01:16:24;101593.38;;;-2.53;87.75
54628;BME280;40525;55.926;21.066;2022-12-20T01:18:53;101590.80;;;-2.53;87.62
54628;BME280;40525;55.926;21.066;2022-12-20T01:21:22;101588.73;;;-2.49;87.71
54628;BME280;40525;55.926;21.066;2022-12-20T01:23:50;101584.04;;;-2.48;87.87
54628;BME280;40525;55.926;21.066;2022-12-20T01:26:19;101587.95;;;-2.46;88.21
54628;BME280;40525;55.926;21.066;2022-12-20T01:28:48;101575.52;;;-2.44;88.28
54628;BME280;40525;55.926;21.066;2022-12-20T01:31:17;101570.34;;;-2.44;89.06
54628;BME280;40525;55.926;21.066;2022-12-20T01:33:46;101563.08;;;-2.41;88.51
54628;BME280;40525;55.926;21.066;2022-12-20T01:36:16;101552.74;;;-2.41;88.82
54628;BME280;40525;55.926;21.066;2022-12-20T01:38:44;101542.45;;;-2.40;88.31
54628;BME280;40525;55.926;21.066;2022-12-20T01:41:18;101545.89;;;-2.41;89.88
54628;BME280;40525;55.926;21.066;2022-12-20T01:43:52;101539.95;;;-2.37;88.94
54628;BME280;40525;55.926;21.066;2022-12-20T01:46:27;101539.98;;;-2.35;88.63
54628;BME280;40525;55.926;21.066;2022-12-20T01:49:07;101535.33;;;-2.31;88.77
54628;BME280;40525;55.926;21.066;2022-12-20T01:51:45;101534.50;;;-2.28;88.98
54628;BME280;40525;55.926;21.066;2022-12-20T01:54:18;101527.61;;;-2.29;89.25
54628;BME280;40525;55.926;21.066;2022-12-20T01:56:48;101532.70;;;-2.32;89.55
54628;BME280;40525;55.926;21.066;2022-12-20T01:59:16;101523.59;;;-2.36;90.02
54628;BME280;40525;55.926;21.066;2022-12-20T02:01:44;101522.30;;;-2.37;91.43
54628;BME280;40525;55.926;21.066;2022-12-20T02:04:11;101523.59;;;-2.36;90.07
54628;BME280;40525;55.926;21.066;2022-12-20T02:06:38;101521.91;;;-2.33;90.56
54628;BME280;40525;55.926;21.066;2022-12-20T02:09:05;101519.87;;;-2.29;90.62
54628;BME280;40525;55.926;21.066;2022-12-20T02:17:25;101516.18;;;-2.19;91.56
54628;BME280;40525;55.926;21.066;2022-12-20T02:23:34;101503.59;;;-2.02;90.89
54628;BME280;40525;55.926;21.066;2022-12-20T02:34:43;101484.48;;;-1.86;90.83
54628;BME280;40525;55.926;21.066;2022-12-20T02:37:10;101481.13;;;-1.81;91.74
54628;BME280;40525;55.926;21.066;2022-12-20T02:39:39;101471.28;;;-1.77;91.39
54628;BME280;40525;55.926;21.066;2022-12-20T02:42:11;101471.35;;;-1.73;91.76
54628;BME280;40525;55.926;21.066;2022-12-20T02:44:46;101469.62;;;-1.73;91.81
54628;BME280;40525;55.926;21.066;2022-12-20T02:47:39;101468.86;;;-1.69;91.81
54628;BME280;40525;55.926;21.066;2022-12-20T02:50:07;101456.83;;;-1.65;91.61
54628;BME280;40525;55.926;21.066;2022-12-20T02:52:35;101447.80;;;-1.64;92.53
54628;BME280;40525;55.926;21.066;2022-12-20T02:55:05;101440.02;;;-1.65;93.11
54628;BME280;40525;55.926;21.066;2022-12-20T02:57:43;101440.94;;;-1.62;91.86
54628;BME280;40525;55.926;21.066;2022-12-20T03:00:19;101441.44;;;-1.58;92.05
54628;BME280;40525;55.926;21.066;2022-12-20T03:02:48;101445.80;;;-1.55;92.03
54628;BME280;40525;55.926;21.066;2022-12-20T03:05:38;101435.92;;;-1.52;92.04
54628;BME280;40525;55.926;21.066;2022-12-20T03:08:06;101435.11;;;-1.48;91.75
54628;BME280;40525;55.926;21.066;2022-12-20T03:10:32;101430.00;;;-1.45;91.81
54628;BME280;40525;55.926;21.066;2022-12-20T03:12:59;101424.88;;;-1.41;91.52
54628;BME280;40525;55.926;21.066;2022-12-20T03:15:27;101426.61;;;-1.41;92.70
54628;BME280;40525;55.926;21.066;2022-12-20T03:17:55;101428.34;;;-1.42;93.89
54628;BME280;40525;55.926;21.066;2022-12-20T03:20:21;101424.05;;;-1.40;92.83
54628;BME280;40525;55.926;21.066;2022-12-20T03:22:48;101416.80;;;-1.34;92.98
54628;BME280;40525;55.926;21.066;2022-12-20T03:25:14;101415.11;;;-1.32;93.08
54628;BME280;40525;55.926;21.066;2022-12-20T03:27:41;101419.91;;;-1.28;93.25
54628;BME280;40525;55.926;21.066;2022-12-20T03:30:08;101410.04;;;-1.24;93.62
54628;BME280;40525;55.926;21.066;2022-12-20T03:32:36;101413.14;;;-1.19;93.08
54628;BME280;40525;55.926;21.066;2022-12-20T03:35:03;101409.77;;;-1.13;92.94
54628;BME280;40525;55.926;21.066;2022-12-20T03:37:32;101409.84;;;-1.07;93.00
54628;BME280;40525;55.926;21.066;2022-12-20T03:39:59;101406.89;;;-1.02;92.95
54628;BME280;40525;55.926;21.066;2022-12-20T03:42:26;101404.35;;;-0.97;93.50
54628;BME280;40525;55.926;21.066;2022-12-20T03:44:53;101396.64;;;-0.94;93.33
54628;BME280;40525;55.926;21.066;2022-12-20T03:47:19;101402.75;;;-0.89;93.18
54628;BME280;40525;55.926;21.066;2022-12-20T03:49:45;101404.06;;;-0.86;93.71
54628;BME280;40525;55.926;21.066;2022-12-20T03:52:13;101404.54;;;-0.82;93.50
54628;BME280;40525;55.926;21.066;2022-12-20T03:54:40;101399.89;;;-0.74;93.07
54628;BME280;40525;55.926;21.066;2022-12-20T03:57:11;101393.94;;;-0.67;93.13
54628;BME280;40525;55.926;21.066;2022-12-20T03:59:38;101393.99;;;-0.61;93.34
54628;BME280;40525;55.926;21.066;2022-12-20T04:02:06;101391.45;;;-0.58;93.36
54628;BME280;40525;55.926;21.066;2022-12-20T04:04:33;101388.86;;;-0.58;93.21
54628;BME280;40525;55.926;21.066;2022-12-20T04:07:00;101388.90;;;-0.53;93.46
54628;BME280;40525;55.926;21.066;2022-12-20T04:09:27;101386.80;;;-0.48;93.05
54628;BME280;40525;55.926;21.066;2022-12-20T04:11:55;101382.95;;;-0.45;93.38
54628;BME280;40525;55.926;21.066;2022-12-20T04:14:22;101377.41;;;-0.40;93.32
54628;BME280;40525;55.926;21.066;2022-12-20T04:16:49;101374.83;;;-0.36;93.45
54628;BME280;40525;55.926;21.066;2022-12-20T04:19:18;101369.69;;;-0.33;93.44
54628;BME280;40525;55.926;21.066;2022-12-20T04:21:45;101371.02;;;-0.30;93.33
54628;BME280;40525;55.926;21.066;2022-12-20T04:24:13;101373.66;;;-0.24;93.51
54628;BME280;40525;55.926;21.066;2022-12-20T04:26:44;101365.94;;;-0.18;93.02
54628;BME280;40525;55.926;21.066;2022-12-20T04:29:11;101360.81;;;-0.10;93.25
54628;BME280;40525;55.926;21.066;2022-12-20T04:31:38;101366.92;;;-0.05;93.17
54628;BME280;40525;55.926;21.066;2022-12-20T04:34:05;101361.34;;;-0.02;93.26
54628;BME280;40525;55.926;21.066;2022-12-20T04:36:32;101365.67;;;0.01;92.97
54628;BME280;40525;55.926;21.066;2022-12-20T04:39:01;101359.64;;;0.05;92.85
54628;BME280;40525;55.926;21.066;2022-12-20T04:41:29;101357.95;;;0.09;92.89
54628;BME280;40525;55.926;21.066;2022-12-20T04:43:58;101352.80;;;0.15;93.34
54628;BME280;40525;55.926;21.066;2022-12-20T04:46:27;101353.30;;;0.19;93.24
54628;BME280;40525;55.926;21.066;2022-12-20T04:48:54;101346.38;;;0.23;93.21
54628;BME280;40525;55.926;21.066;2022-12-20T04:51:21;101342.53;;;0.27;93.31
54628;BME280;40525;55.926;21.066;2022-12-20T04:53:48;101351.64;;;0.33;93.10
54628;BME280;40525;55.926;21.066;2022-12-20T04:56:31;101353.38;;;0.33;92.75
54628;BME280;40525;55.926;21.066;2022-12-20T04:58:59;101348.23;;;0.41;93.07
54628;BME280;40525;55.926;21.066;2022-12-20T05:01:27;101343.95;;;0.46;93.25
54628;BME280;40525;55.926;21.066;2022-12-20T05:03:54;101341.81;;;0.50;94.01
54628;BME280;40525;55.926;21.066;2022-12-20T05:06:21;101345.73;;;0.56;94.62
54628;BME280;40525;55.926;21.066;2022-12-20T05:08:48;101346.22;;;0.65;94.93
54628;BME280;40525;55.926;21.066;2022-12-20T05:11:15;101342.37;;;0.77;95.34
54628;BME280;40525;55.926;21.066;2022-12-20T05:13:41;101347.62;;;0.91;96.09
54628;BME280;40525;55.926;21.066;2022-12-20T05:16:08;101350.27;;;0.97;95.33
54628;BME280;40525;55.926;21.066;2022-12-20T05:18:34;101341.61;;;1.04;95.12
54628;BME280;40525;55.926;21.066;2022-12-20T05:21:03;101338.20;;;1.08;95.20
54628;BME280;40525;55.926;21.066;2022-12-20T05:23:50;101334.73;;;1.12;96.33
54628;BME280;40525;55.926;21.066;2022-12-20T05:26:49;101333.48;;;1.28;97.72
54628;BME280;40525;55.926;21.066;2022-12-20T05:29:16;101338.70;;;1.43;98.16
54628;BME280;40525;55.926;21.066;2022-12-20T05:31:43;101335.27;;;1.56;97.74
54628;BME280;40525;55.926;21.066;2022-12-20T05:34:10;101324.46;;;1.71;98.47
54628;BME280;40525;55.926;21.066;2022-12-20T05:36:37;101330.09;;;1.81;99.14
54628;BME280;40525;55.926;21.066;2022-12-20T05:39:04;101329.23;;;1.88;100.00
54628;BME280;40525;55.926;21.066;2022-12-20T05:41:32;101327.93;;;1.98;100.00
54628;BME280;40525;55.926;21.066;2022-12-20T05:44:00;101317.08;;;2.06;99.55
54628;BME280;40525;55.926;21.066;2022-12-20T05:46:27;101324.01;;;2.11;100.00
54628;BME280;40525;55.926;21.066;2022-12-20T05:48:55;101321.39;;;2.18;100.00
54628;BME280;40525;55.926;21.066;2022-12-20T05:51:22;101322.67;;;2.24;100.00
54628;BME280;40525;55.926;21.066;2022-12-20T05:53:51;101318.34;;;2.30;100.00
54628;BME280;40525;55.926;21.066;2022-12-20T05:56:19;101324.41;;;2.34;100.00
54628;BME280;40525;55.926;21.066;2022-12-20T05:58:46;101323.98;;;2.39;100.00
54628;BME280;40525;55.926;21.066;2022-12-20T06:01:13;101317.45;;;2.44;100.00
54628;BME280;40525;55.926;21.066;2022-12-20T06:03:39;101315.71;;;2.49;100.00
54628;BME280;40525;55.926;21.066;2022-12-20T06:06:08;101321.33;;;2.53;100.00
54628;BME280;40525;55.926;21.066;2022-12-20T06:08:35;101320.89;;;2.58;100.00
54628;BME280;40525;55.926;21.066;2022-12-20T06:11:03;101316.55;;;2.60;100.00
54628;BME280;40525;55.926;21.066;2022-12-20T06:13:31;101316.96;;;2.64;100.00
54628;BME280;40525;55.926;21.066;2022-12-20T06:15:58;101315.22;;;2.66;100.00
54628;BME280;40525;55.926;21.066;2022-12-20T06:18:26;101315.19;;;2.71;100.00
54628;BME280;40525;55.926;21.066;2022-12-20T06:20:55;101318.23;;;2.73;100.00
54628;BME280;40525;55.926;21.066;2022-12-20T06:23:23;101316.05;;;2.78;100.00
54628;BME280;40525;55.926;21.066;2022-12-20T06:26:05;101321.66;;;2.80;100.00
54628;BME280;40525;55.926;21.066;2022-12-20T06:28:34;101318.62;;;2.84;100.00
54628;BME280;40525;55.926;21.066;2022-12-20T06:31:03;101315.13;;;2.86;100.00
54628;BME280;40525;55.926;21.066;2022-12-20T06:33:31;101317.73;;;2.89;100.00
54628;BME280;40525;55.926;21.066;2022-12-20T06:35:58;101318.14;;;2.92;100.00
54628;BME280;40525;55.926;21.066;2022-12-20T06:38:25;101314.23;;;2.95;100.00
54628;BME280;40525;55.926;21.066;2022-12-20T06:40:52;101315.53;;;2.97;100.00
54628;BME280;40525;55.926;21.066;2022-12-20T06:43:18;101321.59;;;3.00;100.00
54628;BME280;40525;55.926;21.066;2022-12-20T06:45:46;101316.39;;;3.00;100.00
54628;BME280;40525;55.926;21.066;2022-12-20T06:48:13;101322.45;;;3.04;100.00
54628;BME280;40525;55.926;21.066;2022-12-20T06:50:42;101313.74;;;3.06;100.00
54628;BME280;40525;55.926;21.066;2022-12-20T06:53:08;101311.99;;;3.08;100.00
54628;BME280;40525;55.926;21.066;2022-12-20T06:55:35;101315.45;;;3.12;100.00
54628;BME280;40525;55.926;21.066;2022-12-20T06:58:02;101315.00;;;3.16;100.00
54628;BME280;40525;55.926;21.066;2022-12-20T07:00:29;101308.04;;;3.18;100.00
54628;BME280;40525;55.926;21.066;2022-12-20T07:02:55;101312.80;;;3.18;100.00
54628;BME280;40525;55.926;21.066;2022-12-20T07:05:22;101308.45;;;3.20;100.00
54628;BME280;40525;55.926;21.066;2022-12-20T07:07:48;101306.70;;;3.22;100.00
54628;BME280;40525;55.926;21.066;2022-12-20T07:10:16;101314.51;;;3.25;100.00
54628;BME280;40525;55.926;21.066;2022-12-20T07:12:42;101313.61;;;3.28;100.00
54628;BME280;40525;55.926;21.066;2022-12-20T07:15:09;101311.00;;;3.31;100.00
54628;BME280;40525;55.926;21.066;2022-12-20T07:17:36;101314.46;;;3.33;100.00
54628;BME280;40525;55.926;21.066;2022-12-20T07:20:03;101314.45;;;3.36;100.00
54628;BME280;40525;55.926;21.066;2022-12-20T07:22:32;101307.05;;;3.37;100.00
54628;BME280;40525;55.926;21.066;2022-12-20T07:24:59;101301.38;;;3.39;100.00
54628;BME280;40525;55.926;21.066;2022-12-20T07:27:25;101310.05;;;3.41;100.00
54628;BME280;40525;55.926;21.066;2022-12-20T07:29:52;101308.30;;;3.43;100.00
54628;BME280;40525;55.926;21.066;2022-12-20T07:32:18;101310.04;;;3.47;100.00
54628;BME280;40525;55.926;21.066;2022-12-20T07:34:45;101308.28;;;3.49;100.00
54628;BME280;40525;55.926;21.066;2022-12-20T07:37:11;101306.09;;;3.50;100.00
54628;BME280;40525;55.926;21.066;2022-12-20T07:39:38;101306.94;;;3.54;100.00
54628;BME280;40525;55.926;21.066;2022-12-20T07:42:04;101305.17;;;3.58;100.00
54628;BME280;40525;55.926;21.066;2022-12-20T07:44:33;101305.62;;;3.57;100.00
54628;BME280;40525;55.926;21.066;2022-12-20T07:47:00;101305.16;;;3.61;100.00
54628;BME280;40525;55.926;21.066;2022-12-20T07:49:27;101305.12;;;3.64;100.00
54628;BME280;40525;55.926;21.066;2022-12-20T07:51:56;101308.58;;;3.67;100.00
54628;BME280;40525;55.926;21.066;2022-12-20T07:54:40;101302.05;;;3.69;100.00
54628;BME280;40525;55.926;21.066;2022-12-20T07:57:20;101303.34;;;3.70;100.00
54628;BME280;40525;55.926;21.066;2022-12-20T07:59:51;101304.20;;;3.71;100.00
54628;BME280;40525;55.926;21.066;2022-12-20T08:02:23;101310.27;;;3.75;100.00
54628;BME280;40525;55.926;21.066;2022-12-20T08:04:55;101307.64;;;3.78;100.00
54628;BME280;40525;55.926;21.066;2022-12-20T08:07:21;101303.28;;;3.80;100.00
54628;BME280;40525;55.926;21.066;2022-12-20T08:09:48;101293.69;;;3.83;100.00
54628;BME280;40525;55.926;21.066;2022-12-20T08:12:16;101298.86;;;3.85;100.00
54628;BME280;40525;55.926;21.066;2022-12-20T08:14:44;101295.38;;;3.87;100.00
54628;BME280;40525;55.926;21.066;2022-12-20T08:17:10;101297.53;;;3.89;100.00
54628;BME280;40525;55.926;21.066;2022-12-20T08:19:37;101306.62;;;3.93;100.00
54628;BME280;40525;55.926;21.066;2022-12-20T08:22:04;101300.98;;;3.93;100.00
54628;BME280;40525;55.926;21.066;2022-12-20T08:24:32;101293.56;;;3.96;100.00
54628;BME280;40525;55.926;21.066;2022-12-20T08:26:59;101297.46;;;3.99;100.00
54628;BME280;40525;55.926;21.066;2022-12-20T08:29:26;101290.48;;;3.99;100.00
54628;BME280;40525;55.926;21.066;2022-12-20T08:31:52;101294.80;;;4.02;100.00
54628;BME280;40525;55.926;21.066;2022-12-20T08:34:19;101298.26;;;4.04;100.00
54628;BME280;40525;55.926;21.066;2022-12-20T08:36:46;101300.86;;;4.05;100.00
54628;BME280;40525;55.926;21.066;2022-12-20T08:39:12;101303.45;;;4.10;100.00
54628;BME280;40525;55.926;21.066;2022-12-20T08:41:38;101298.17;;;4.13;100.00
54628;BME280;40525;55.926;21.066;2022-12-20T08:44:05;101300.38;;;4.14;100.00
54628;BME280;40525;55.926;21.066;2022-12-20T08:46:32;101301.63;;;4.15;100.00
54628;BME280;40525;55.926;21.066;2022-12-20T08:48:59;101292.48;;;4.17;100.00
54628;BME280;40525;55.926;21.066;2022-12-20T08:51:26;101304.22;;;4.20;100.00
54628;BME280;40525;55.926;21.066;2022-12-20T08:53:53;101298.14;;;4.19;100.00
54628;BME280;40525;55.926;21.066;2022-12-20T08:56:20;101295.94;;;4.20;100.00
54628;BME280;40525;55.926;21.066;2022-12-20T08:58:47;101298.53;;;4.23;100.00
54628;BME280;40525;55.926;21.066;2022-12-20T09:01:16;101302.00;;;4.24;100.00
54628;BME280;40525;55.926;21.066;2022-12-20T09:03:46;101298.07;;;4.25;100.00
54628;BME280;40525;55.926;21.066;2022-12-20T09:06:16;101296.72;;;4.28;100.00
54628;BME280;40525;55.926;21.066;2022-12-20T09:08:46;101300.63;;;4.28;100.00
54628;BME280;40525;55.926;21.066;2022-12-20T09:11:21;101299.30;;;4.32;100.00
54628;BME280;40525;55.926;21.066;2022-12-20T09:13:49;101296.70;;;4.32;100.00
54628;BME280;40525;55.926;21.066;2022-12-20T09:16:19;101302.77;;;4.32;100.00
54628;BME280;40525;55.926;21.066;2022-12-20T09:18:49;101297.98;;;4.35;100.00
54628;BME280;40525;55.926;21.066;2022-12-20T09:21:18;101293.63;;;4.34;100.00
54628;BME280;40525;55.926;21.066;2022-12-20T09:23:45;101295.38;;;4.35;100.00
54628;BME280;40525;55.926;21.066;2022-12-20T09:26:15;101301.00;;;4.36;100.00
54628;BME280;40525;55.926;21.066;2022-12-20T09:28:42;101304.45;;;4.38;100.00
54628;BME280;40525;55.926;21.066;2022-12-20T09:31:12;101304.45;;;4.39;100.00
54628;BME280;40525;55.926;21.066;2022-12-20T09:33:40;101303.12;;;4.41;100.00
54628;BME280;40525;55.926;21.066;2022-12-20T09:36:17;101313.11;;;4.43;100.00
54628;BME280;40525;55.926;21.066;2022-12-20T09:38:45;101313.11;;;4.43;100.00
54628;BME280;40525;55.926;21.066;2022-12-20T09:41:37;101306.12;;;4.45;100.00
54628;BME280;40525;55.926;21.066;2022-12-20T09:44:18;101308.28;;;4.47;100.00
54628;BME280;40525;55.926;21.066;2022-12-20T09:47:02;101319.13;;;4.49;100.00
54628;BME280;40525;55.926;21.066;2022-12-20T09:49:35;101314.34;;;4.50;100.00
54628;BME280;40525;55.926;21.066;2022-12-20T10:00:56;101313.42;;;4.53;100.00
54628;BME280;40525;55.926;21.066;2022-12-20T10:03:31;101320.84;;;4.54;100.00
54628;BME280;40525;55.926;21.066;2022-12-20T10:06:03;101323.88;;;4.53;100.00
54628;BME280;40525;55.926;21.066;2022-12-20T10:11:54;101325.09;;;4.61;100.00
54628;BME280;40525;55.926;21.066;2022-12-20T10:14:25;101315.09;;;4.60;100.00
54628;BME280;40525;55.926;21.066;2022-12-20T10:17:03;101316.39;;;4.62;100.00
54628;BME280;40525;55.926;21.066;2022-12-20T10:25:22;101317.70;;;4.60;100.00
54628;BME280;40525;55.926;21.066;2022-12-20T10:27:53;101315.95;;;4.61;100.00
54628;BME280;40525;55.926;21.066;2022-12-20T10:30:31;101319.45;;;4.61;100.00
54628;BME280;40525;55.926;21.066;2022-12-20T10:32:57;101315.07;;;4.63;100.00
54628;BME280;40525;55.926;21.066;2022-12-20T10:35:29;101307.23;;;4.63;100.00
54628;BME280;40525;55.926;21.066;2022-12-20T10:38:06;101318.98;;;4.65;100.00
54628;BME280;40525;55.926;21.066;2022-12-20T10:40:41;101315.91;;;4.65;100.00
54628;BME280;40525;55.926;21.066;2022-12-20T10:43:18;101317.63;;;4.66;100.00
54628;BME280;40525;55.926;21.066;2022-12-20T10:45:54;101314.15;;;4.67;100.00
54628;BME280;40525;55.926;21.066;2022-12-20T10:48:38;101315.86;;;4.68;100.00
54628;BME280;40525;55.926;21.066;2022-12-20T10:51:13;101323.27;;;4.71;100.00
54628;BME280;40525;55.926;21.066;2022-12-20T10:53:58;101316.73;;;4.71;100.00
54628;BME280;40525;55.926;21.066;2022-12-20T10:56:28;101326.77;;;4.68;100.00
54628;BME280;40525;55.926;21.066;2022-12-20T10:59:02;101317.16;;;4.68;100.00
54628;BME280;40525;55.926;21.066;2022-12-20T11:01:34;101311.98;;;4.67;100.00
54628;BME280;40525;55.926;21.066;2022-12-20T11:04:06;101313.71;;;4.66;100.00
54628;BME280;40525;55.926;21.066;2022-12-20T11:06:52;101319.38;;;4.67;100.00
54628;BME280;40525;55.926;21.066;2022-12-20T11:14:35;101320.14;;;4.76;100.00
54628;BME280;40525;55.926;21.066;2022-12-20T11:17:33;101307.13;;;4.73;100.00
54628;BME280;40525;55.926;21.066;2022-12-20T11:20:21;101308.91;;;4.71;100.00
54628;BME280;40525;55.926;21.066;2022-12-20T11:23:25;101305.01;;;4.67;100.00
54628;BME280;40525;55.926;21.066;2022-12-20T11:34:54;101301.17;;;4.61;100.00
54628;BME280;40525;55.926;21.066;2022-12-20T11:37:32;101298.55;;;4.61;100.00
54628;BME280;40525;55.926;21.066;2022-12-20T11:40:20;101299.41;;;4.62;100.00
54628;BME280;40525;55.926;21.066;2022-12-20T11:43:06;101302.88;;;4.62;100.00
54628;BME280;40525;55.926;21.066;2022-12-20T11:56:25;101292.39;;;4.67;100.00
54628;BME280;40525;55.926;21.066;2022-12-20T11:59:16;101288.02;;;4.67;100.00
54628;BME280;40525;55.926;21.066;2022-12-20T12:01:54;101285.82;;;4.68;100.00
54628;BME280;40525;55.926;21.066;2022-12-20T12:04:29;101288.87;;;4.69;100.00
54628;BME280;40525;55.926;21.066;2022-12-20T12:07:06;101285.41;;;4.69;100.00
54628;BME280;40525;55.926;21.066;2022-12-20T12:12:32;101278.03;;;4.67;100.00
54628;BME280;40525;55.926;21.066;2022-12-20T12:18:00;101281.95;;;4.65;100.00
54628;BME280;40525;55.926;21.066;2022-12-20T12:24:18;101274.13;;;4.64;100.00
54628;BME280;40525;55.926;21.066;2022-12-20T12:26:27;101275.00;;;4.63;100.00
54628;BME280;40525;55.926;21.066;2022-12-20T12:29:19;101278.50;;;4.63;100.00
54628;BME280;40525;55.926;21.066;2022-12-20T12:46:17;101270.66;;;4.63;100.00
54628;BME280;40525;55.926;21.066;2022-12-20T12:48:24;101274.57;;;4.65;100.00
54628;BME280;40525;55.926;21.066;2022-12-20T12:50:55;101274.98;;;4.66;100.00
54628;BME280;40525;55.926;21.066;2022-12-20T12:53:32;101271.91;;;4.66;100.00
54628;BME280;40525;55.926;21.066;2022-12-20T13:07:42;101273.20;;;4.69;100.00
54628;BME280;40525;55.926;21.066;2022-12-20T13:17:58;101265.38;;;4.66;100.00
54628;BME280;40525;55.926;21.066;2022-12-20T13:20:33;101262.77;;;4.68;100.00
54628;BME280;40525;55.926;21.066;2022-12-20T13:23:14;101262.35;;;4.67;100.00
54628;BME280;40525;55.926;21.066;2022-12-20T13:33:50;101258.44;;;4.67;100.00
54628;BME280;40525;55.926;21.066;2022-12-20T13:36:33;101264.97;;;4.67;100.00
54628;BME280;40525;55.926;21.066;2022-12-20T13:39:02;101261.05;;;4.67;100.00
54628;BME280;40525;55.926;21.066;2022-12-20T13:41:40;101268.00;;;4.66;100.00
54628;BME280;40525;55.926;21.066;2022-12-20T13:47:05;101265.38;;;4.66;100.00
54628;BME280;40525;55.926;21.066;2022-12-20T13:49:48;101270.61;;;4.66;100.00
54628;BME280;40525;55.926;21.066;2022-12-20T13:52:29;101272.81;;;4.65;100.00
54628;BME280;40525;55.926;21.066;2022-12-20T13:54:59;101274.11;;;4.67;100.00
54628;BME280;40525;55.926;21.066;2022-12-20T13:57:43;101262.81;;;4.65;100.00
54628;BME280;40525;55.926;21.066;2022-12-20T14:00:22;101234.66;;;4.54;100.00
54628;BME280;40525;55.926;21.066;2022-12-20T14:02:45;101261.93;;;4.64;100.00
54628;BME280;40525;55.926;21.066;2022-12-20T14:05:21;101251.92;;;4.65;100.00
54628;BME280;40525;55.926;21.066;2022-12-20T14:08:03;101254.08;;;4.66;100.00
54628;BME280;40525;55.926;21.066;2022-12-20T14:10:26;101251.92;;;4.65;100.00
54628;BME280;40525;55.926;21.066;2022-12-20T14:12:55;101257.16;;;4.64;100.00
54628;BME280;40525;55.926;21.066;2022-12-20T14:15:30;101254.09;;;4.64;100.00
54628;BME280;40525;55.926;21.066;2022-12-20T14:18:15;101253.67;;;4.65;100.00
54628;BME280;40525;55.926;21.066;2022-12-20T14:20:49;101258.91;;;4.63;100.00
54628;BME280;40525;55.926;21.066;2022-12-20T14:23:21;101255.88;;;4.61;100.00
54628;BME280;40525;55.926;21.066;2022-12-20T14:25:57;101251.54;;;4.61;100.00
54628;BME280;40525;55.926;21.066;2022-12-20T14:28:43;101253.73;;;4.59;100.00
54628;BME280;40525;55.926;21.066;2022-12-20T14:36:42;101242.45;;;4.55;100.00
54628;BME280;40525;55.926;21.066;2022-12-20T14:39:33;101239.84;;;4.55;100.00
54628;BME280;40525;55.926;21.066;2022-12-20T14:44:38;101239.42;;;4.56;100.00
54628;BME280;40525;55.926;21.066;2022-12-20T14:49:48;101226.85;;;4.50;100.00
54628;BME280;40525;55.926;21.066;2022-12-20T14:52:32;101243.37;;;4.51;100.00
54628;BME280;40525;55.926;21.066;2022-12-20T14:57:45;101234.70;;;4.49;100.00
54628;BME280;40525;55.926;21.066;2022-12-20T15:03:00;101239.52;;;4.48;100.00
54628;BME280;40525;55.926;21.066;2022-12-20T15:05:49;101239.92;;;4.49;100.00
54628;BME280;40525;55.926;21.066;2022-12-20T15:08:32;101235.14;;;4.50;100.00
54628;BME280;40525;55.926;21.066;2022-12-20T15:13:44;101240.36;;;4.50;100.00
54628;BME280;40525;55.926;21.066;2022-12-20T15:16:17;101243.84;;;4.49;100.00